Have a Safe July 4th! 

Flight Track Log - Related Links

Times and Time Zones

All times are in EDT time to prevent confusion due to time zone crossing. See the SWA3206 flight status page for this flight to view local times or setup timezone preferences in your user account.

Time Position Orientation Groundspeed Altitude Reporting Facility
EDT Latitude Longitude Course Direction KTS MPH feet Rate Location/Type
Wed 11:13:01 AM 39.8667 -75.2333 57° Northeast 151 174 1,000  Level Philadelphia TRACON
Wed 11:13:49 AM 39.8833 -75.2000 57° Northeast 187 215 2,500 2,944 Climbing Philadelphia TRACON
Wed 11:14:49 AM 39.9500 -75.1833 11° North 228 262 6,300 3,600 Climbing Philadelphia TRACON
Wed 11:15:49 AM 40.0000 -75.2167 333° Northwest 261 300 9,700 1,900 Climbing Philadelphia TRACON
Wed 11:16:49 AM 40.0667 -75.3167 311° West 354 407 10,100 971 Climbing Philadelphia TRACON
Wed 11:18:05 AM 40.1361 -75.4328 308° West 380 437 11,900 1,883 Climbing New York Center
Wed 11:19:06 AM 40.1947 -75.5264 309° West 375 432 14,400 2,622 Climbing New York Center
Wed 11:20:04 AM 40.2678 -75.6292 313° West 380 437 17,100 2,622 Climbing New York Center
Wed 11:21:05 AM 40.3522 -75.7522 312° West 386 444 19,600 2,550 Climbing New York Center
Wed 11:22:04 AM 40.4264 -75.8694 310° West 402 463 22,200 2,350 Climbing New York Center
Wed 11:23:05 AM 40.4583 -76.0000 288° West 409 471 24,300 2,016 Climbing New York Center
Wed 11:24:06 AM 40.4822 -76.1628 281° West 428 493 26,300 1,835 Climbing New York Center
Wed 11:25:06 AM 40.5081 -76.3258 282° West 447 514 28,000 1,650 Climbing New York Center
Wed 11:26:06 AM 40.5333 -76.4919 281° West 459 528 29,600 1,765 Climbing New York Center
Wed 11:27:05 AM 40.5650 -76.6558 284° West 464 534 31,500 1,866 Climbing New York Center
Wed 11:28:05 AM 40.6072 -76.8097 290° West 459 528 33,300 1,934 Climbing New York Center
Wed 11:29:06 AM 40.6472 -76.9611 289° West 453 521 35,400 1,339 Climbing New York Center
Wed 11:30:06 AM 40.6872 -77.1153 289° West 453 521 36,000 305 Climbing New York Center
Wed 11:31:04 AM 40.7269 -77.2667 289° West 448 516 36,000  Level New York Center
Wed 11:32:04 AM 40.7664 -77.4158 289° West 448 516 36,000  Level New York Center
Wed 11:33:04 AM 40.8058 -77.5678 289° West 443 510 36,000  Level New York Center
Wed 11:35:21 AM 40.8992 -77.9156 290° West 442 509 36,000  Level Cleveland Center
Wed 11:36:21 AM 40.9275 -78.0711 284° West 437 503 36,000  Level Cleveland Center
Wed 11:37:21 AM 40.9456 -78.2300 279° West 437 503 36,000  Level Cleveland Center
Wed 11:38:21 AM 40.9656 -78.3914 279° West 442 509 36,000  Level Cleveland Center
Wed 11:39:21 AM 40.9872 -78.5503 280° West 447 514 36,000  Level Cleveland Center
Wed 11:40:21 AM 41.0047 -78.7150 278° West 447 514 36,000  Level Cleveland Center
Wed 11:41:21 AM 41.0239 -78.8767 279° West 447 514 36,000  Level Cleveland Center
Wed 11:42:21 AM 41.0428 -79.0414 279° West 447 514 36,000  Level Cleveland Center
Wed 11:43:21 AM 41.0617 -79.2036 279° West 447 514 36,000  Level Cleveland Center
Wed 11:44:21 AM 41.0800 -79.3683 278° West 447 514 36,000  Level Cleveland Center
Wed 11:45:21 AM 41.0983 -79.5306 279° West 447 514 36,000  Level Cleveland Center
Wed 11:46:21 AM 41.1186 -79.6928 279° West 447 514 36,000  Level Cleveland Center
Wed 11:47:21 AM 41.1342 -79.8581 277° West 447 514 36,000  Level Cleveland Center
Wed 11:48:21 AM 41.1519 -80.0206 278° West 447 514 36,000  Level Cleveland Center
Wed 11:49:21 AM 41.1714 -80.1831 279° West 447 514 36,000  Level Cleveland Center
Wed 11:50:21 AM 41.1883 -80.3514 278° West 447 514 36,000  Level Cleveland Center
Wed 11:51:21 AM 41.2011 -80.5142 276° West 447 514 36,000  Level Cleveland Center
Wed 11:52:21 AM 41.2178 -80.6797 278° West 447 514 36,000  Level Cleveland Center
Wed 11:53:21 AM 41.2342 -80.8428 278° West 447 514 36,000  Level Cleveland Center
Wed 11:54:21 AM 41.2525 -81.0194 278° West 447 514 36,000  Level Cleveland Center
Wed 11:55:21 AM 41.2683 -81.1825 277° West 442 509 36,000  Level Cleveland Center
Wed 11:56:21 AM 41.2819 -81.3431 276° West 444 511 36,000  Level Cleveland Center
Wed 11:57:21 AM 41.3017 -81.5064 279° West 449 517 36,000  Level Cleveland Center
Wed 11:58:21 AM 41.3147 -81.6722 276° West 449 517 36,000  Level Cleveland Center
Wed 11:59:21 AM 41.3297 -81.8331 277° West 449 517 36,000  Level Cleveland Center
Wed 12:00:21 PM 41.3447 -81.9936 277° West 444 511 36,000  Level Cleveland Center
Wed 12:01:21 PM 41.3550 -82.1489 275° West 455 524 36,000  Level Cleveland Center
Wed 12:02:21 PM 41.3672 -82.3289 275° West 455 524 36,000  Level Cleveland Center
Wed 12:03:21 PM 41.3769 -82.4953 275° West 455 524 36,000  Level Cleveland Center
Wed 12:04:21 PM 41.3864 -82.6644 274° West 460 529 36,000  Level Cleveland Center
Wed 12:05:21 PM 41.3939 -82.8306 273° West 460 529 36,000  Level Cleveland Center
Wed 12:06:21 PM 41.4050 -83.0028 275° West 460 529 36,000  Level Cleveland Center
Wed 12:07:21 PM 41.4117 -83.1719 273° West 460 529 36,000  Level Cleveland Center
Wed 12:08:21 PM 41.4200 -83.3411 274° West 460 529 36,000  Level Cleveland Center
Wed 12:09:21 PM 41.4283 -83.5106 274° West 460 529 36,000 -350 Level Cleveland Center
Wed 12:10:21 PM 41.4367 -83.6772 274° West 460 529 35,300 -850 Descending Cleveland Center
Wed 12:11:21 PM 41.4442 -83.8492 273° West 460 529 34,300 -950 Descending Cleveland Center
Wed 12:12:21 PM 41.4519 -84.0158 274° West 465 535 33,400 -950 Descending Cleveland Center
Wed 12:13:21 PM 41.4592 -84.1881 273° West 459 528 32,400 -914 Descending Cleveland Center
Wed 12:15:51 PM 41.4783 -84.5781 274° West 465 535 30,200 -679 Descending Chicago Center
Wed 12:16:53 PM 41.4861 -84.7872 273° West 470 541 30,000 -98 Descending Chicago Center
Wed 12:17:54 PM 41.4925 -84.9608 273° West 470 541 30,000 -585 Level Chicago Center
Wed 12:18:56 PM 41.4975 -85.1292 272° West 457 526 28,800 -1,790 Descending Chicago Center
Wed 12:19:58 PM 41.5025 -85.2944 272° West 444 511 26,300 -2,032 Descending Chicago Center
Wed 12:21:00 PM 41.5069 -85.4578 272° West 429 494 24,600 -1,839 Descending Chicago Center
Wed 12:22:02 PM 41.5133 -85.6122 273° West 409 471 22,500 -2,098 Descending Chicago Center
Wed 12:23:03 PM 41.5172 -85.7650 272° West 407 468 20,300 -2,049 Descending Chicago Center
Wed 12:24:05 PM 41.5208 -85.9081 272° West 388 447 18,300 -1,887 Descending Chicago Center
Wed 12:25:07 PM 41.5242 -86.0442 272° West 370 426 16,400 -2,129 Descending Chicago Center
Wed 12:26:09 PM 41.5239 -86.2025 270° West 357 411 13,900 -2,177 Descending Chicago Center
Wed 12:27:11 PM 41.5219 -86.3314 269° West 348 400 11,900 -1,452 Descending Chicago Center
Wed 12:28:13 PM 41.5228 -86.4550 271° West 336 387 10,900 -919 Descending Chicago Center
Wed 12:29:15 PM 41.5211 -86.5700 269° West 314 361 10,000 -435 Descending Chicago Center
Wed 12:30:17 PM 41.5206 -86.6764 270° West 292 336 10,000 -774 Level Chicago Center
Wed 12:31:19 PM 41.5186 -86.7883 269° West 288 331 8,400 -1,500 Descending Chicago Center
Wed 12:32:21 PM 41.5197 -86.8944 271° West 288 331 6,900 -1,161 Descending Chicago Center
Wed 12:33:23 PM 41.5167 -87.0178 268° West 282 325 6,000 -429 Descending Chicago Center
Wed 12:34:27 PM 41.5167 -87.1333 270° West 278 320 6,000 -415 Level Chicago TRACON
Wed 12:35:33 PM 41.5500 -87.2333 294° West 284 327 5,100 -905 Descending Chicago TRACON
Wed 12:36:33 PM 41.5833 -87.3167 298° West 280 322 4,100 -574 Descending Chicago TRACON
Wed 12:37:28 PM 41.6167 -87.4000 298° West 251 289 4,000 -200 Descending Chicago TRACON
Wed 12:38:33 PM 41.6622 -87.4769 308° West 256 295 3,700 -422 Descending Chicago Center
Wed 12:39:36 PM 41.6947 -87.5417 304° West 234 269 3,100 -576 Descending Chicago Center
Wed 12:40:38 PM 41.7322 -87.5922 315° West 210 242 2,500 -242 Descending Chicago Center
Wed 12:41:40 PM 41.7683 -87.6369 317° Northwest 193 222 2,600 -362 Climbing Chicago Center
Wed 12:42:34 PM 41.8000 -87.6833 312° West 170 196 1,800 -895 Descending Chicago TRACON
Wed 12:43:34 PM 41.8000 -87.7333 270° West 134 154 900 -900 Descending Chicago TRACON
Wed 12:45:00 PM 41.7833 -87.7500 334° Northwest  Level FlightAware Approximate

Login

Don't have an account? Register now (free) for customized features, flight alerts, and more!